Time;durP1;ratioP1;P1;durP2;ratioP2;P2;SDS_P1;SDS_P2;PMS_P1;PMS_P2;Temp;Humidity;BMP_temperature;BMP_pressure;BME280_temperature;BME280_humidity;BME280_pressure;Samples;Min_cycle;Max_cycle;Signal;HPM_P1;HPM_P2
2022/09/06 00:01:26;;;;;;;0.60;0.17;;;18.60;99.90;;;;;;5069890;28;20033;-72
2022/09/06 00:03:51;;;;;;;0.55;0.28;;;18.60;99.90;;;;;;5071880;28;20451;-74
2022/09/06 00:06:18;;;;;;;0.32;0.32;;;18.60;99.90;;;;;;5071276;28;20037;-74
2022/09/06 00:08:45;;;;;;;0.28;0.25;;;18.50;99.90;;;;;;5069825;28;20037;-72
2022/09/06 00:11:11;;;;;;;0.65;0.55;;;18.50;99.90;;;;;;5068950;28;20049;-72
2022/09/06 00:13:37;;;;;;;0.50;0.32;;;18.40;99.90;;;;;;5070038;28;20076;-73
2022/09/06 00:16:19;;;;;;;0.80;0.55;;;18.40;99.90;;;;;;5067682;28;20041;-72
2022/09/06 00:18:44;;;;;;;0.20;0.20;;;18.30;99.90;;;;;;5074880;28;20045;-73
2022/09/06 00:21:16;;;;;;;0.65;0.43;;;18.30;99.90;;;;;;5076704;28;20064;-72
2022/09/06 00:23:42;;;;;;;0.13;0.13;;;18.20;99.90;;;;;;5076945;28;20041;-73
2022/09/06 00:26:08;;;;;;;0.20;0.20;;;18.10;99.90;;;;;;5076419;28;20096;-71
2022/09/06 00:28:33;;;;;;;2.92;1.92;;;18.00;99.90;;;;;;5075841;28;20037;-72
2022/09/06 00:31:10;;;;;;;2.35;1.08;;;18.00;99.90;;;;;;5075920;28;20063;-73
2022/09/06 00:33:36;;;;;;;0.93;0.75;;;17.90;99.90;;;;;;5076556;28;20041;-71
2022/09/06 00:36:01;;;;;;;0.77;0.70;;;17.90;99.90;;;;;;5076279;28;20060;-72
2022/09/06 00:38:27;;;;;;;0.45;0.40;;;17.80;99.90;;;;;;5076391;28;20039;-74
2022/09/06 00:40:53;;;;;;;0.38;0.28;;;17.70;99.90;;;;;;5076326;28;20049;-72
2022/09/06 00:43:18;;;;;;;0.40;0.40;;;17.70;99.90;;;;;;5076058;28;20047;-72
2022/09/06 00:45:44;;;;;;;0.73;0.73;;;17.70;99.90;;;;;;5076657;28;20072;-72
2022/09/06 00:48:09;;;;;;;1.10;0.90;;;17.60;99.90;;;;;;5075006;28;20092;-72
2022/09/06 00:50:35;;;;;;;0.38;0.38;;;17.60;99.90;;;;;;5076559;28;20105;-73
2022/09/06 00:53:01;;;;;;;0.28;0.20;;;17.60;99.90;;;;;;5075736;28;20036;-74
2022/09/06 00:55:27;;;;;;;0.25;0.20;;;17.50;99.90;;;;;;5076125;28;20021;-74
2022/09/06 00:57:54;;;;;;;0.98;0.55;;;17.60;99.90;;;;;;5076155;28;20033;-74
2022/09/06 01:00:20;;;;;;;1.50;0.93;;;17.60;99.90;;;;;;5075445;28;20112;-72
2022/09/06 01:02:47;;;;;;;0.60;0.60;;;17.60;99.90;;;;;;5074400;28;20041;-74
2022/09/06 01:05:13;;;;;;;0.45;0.45;;;17.60;99.90;;;;;;5075930;28;20037;-72
2022/09/06 01:08:02;;;;;;;1.23;0.88;;;17.60;99.90;;;;;;5076020;28;20041;-73
2022/09/06 01:10:50;;;;;;;1.42;0.30;;;17.50;99.90;;;;;;5076644;28;20064;-71
2022/09/06 01:13:21;;;;;;;0.95;0.50;;;17.50;99.90;;;;;;5076309;28;20041;-71
2022/09/06 01:15:53;;;;;;;0.63;0.30;;;17.50;99.90;;;;;;5075460;28;20036;-72
2022/09/06 01:18:48;;;;;;;0.25;0.25;;;17.60;99.90;;;;;;5075805;28;20055;-73
2022/09/06 01:21:40;;;;;;;0.30;0.30;;;17.50;99.90;;;;;;5075345;28;20041;-74
2022/09/06 01:24:25;;;;;;;0.88;0.75;;;17.50;99.90;;;;;;5074920;28;20045;-73
2022/09/06 01:27:33;;;;;;;0.08;0.08;;;17.40;99.90;;;;;;5073587;28;20044;-72
2022/09/06 01:30:11;;;;;;;1.45;1.35;;;17.30;99.90;;;;;;5027508;28;20049;-72
2022/09/06 01:32:58;;;;;;;0.82;0.68;;;17.40;99.90;;;;;;5072689;28;20029;-72
2022/09/06 01:35:41;;;;;;;1.05;0.55;;;17.50;99.90;;;;;;5075251;28;20120;-74
2022/09/06 01:38:08;;;;;;;1.50;0.77;;;17.50;99.90;;;;;;5076401;28;20049;-72
2022/09/06 01:40:35;;;;;;;3.45;0.65;;;17.50;99.90;;;;;;5077668;28;20033;-74
2022/09/06 01:43:07;;;;;;;0.30;0.30;;;17.40;99.90;;;;;;5076417;28;20029;-73
2022/09/06 01:46:16;;;;;;;0.10;0.10;;;17.40;99.90;;;;;;5076408;28;20053;-73
2022/09/06 01:48:58;;;;;;;0.52;0.30;;;17.40;99.90;;;;;;4975529;29;20047;-72
2022/09/06 01:51:38;;;;;;;1.70;1.20;;;17.40;99.90;;;;;;4976941;29;20027;-72
2022/09/06 01:54:32;;;;;;;0.40;0.35;;;17.40;99.90;;;;;;5048177;28;20052;-73
2022/09/06 01:57:26;;;;;;;1.98;0.45;;;17.40;99.90;;;;;;5076067;28;20049;-72
2022/09/06 02:00:09;;;;;;;1.98;1.23;;;17.50;99.90;;;;;;5076135;28;20025;-72
2022/09/06 02:02:46;;;;;;;0.08;0.08;;;17.40;99.90;;;;;;5076651;28;20151;-72
2022/09/06 02:05:38;;;;;;;0.85;0.52;;;17.30;99.90;;;;;;5070569;28;20040;-72
2022/09/06 02:08:09;;;;;;;0.30;0.15;;;17.30;99.90;;;;;;5041949;28;20053;-74
2022/09/06 02:10:57;;;;;;;0.80;0.77;;;17.30;99.90;;;;;;5075222;28;20052;-72
2022/09/06 02:13:24;;;;;;;0.15;0.15;;;17.20;99.90;;;;;;5074522;28;20087;-73
2022/09/06 02:15:59;;;;;;;1.15;0.75;;;17.20;99.90;;;;;;5074823;28;20104;-73
2022/09/06 02:18:32;;;;;;;2.47;1.27;;;17.20;99.90;;;;;;5074405;28;20064;-74
2022/09/06 02:21:00;;;;;;;0.43;0.38;;;17.20;99.90;;;;;;5074873;28;20056;-74
2022/09/06 02:23:29;;;;;;;2.83;0.95;;;17.20;99.90;;;;;;5057451;28;20017;-73
2022/09/06 02:26:01;;;;;;;0.38;0.38;;;17.20;99.90;;;;;;5076011;28;20039;-74
2022/09/06 02:28:27;;;;;;;4.47;1.85;;;17.20;99.90;;;;;;5075360;28;20029;-73
2022/09/06 02:30:58;;;;;;;1.05;0.38;;;17.20;99.90;;;;;;5074838;28;20055;-72
2022/09/06 02:33:29;;;;;;;2.40;0.65;;;17.20;99.90;;;;;;5075087;28;20037;-73
2022/09/06 02:35:55;;;;;;;0.73;0.73;;;17.30;99.90;;;;;;5074799;28;20300;-72
2022/09/06 02:38:23;;;;;;;2.45;1.17;;;17.10;99.90;;;;;;5071196;28;20032;-72
2022/09/06 02:40:52;;;;;;;1.98;0.52;;;17.20;99.90;;;;;;5073347;28;20077;-72
2022/09/06 02:43:18;;;;;;;0.38;0.38;;;17.10;99.90;;;;;;5075114;28;20045;-73
2022/09/06 02:45:44;;;;;;;0.17;0.10;;;17.00;99.90;;;;;;5074392;28;20041;-72
2022/09/06 02:48:09;;;;;;;0.38;0.38;;;17.00;99.90;;;;;;5073276;28;20037;-74
2022/09/06 02:50:35;;;;;;;1.48;0.55;;;17.00;99.90;;;;;;5073906;28;20044;-72
2022/09/06 02:53:07;;;;;;;0.52;0.50;;;17.00;99.90;;;;;;5073979;28;20068;-74
2022/09/06 02:55:33;;;;;;;0.82;0.63;;;16.90;99.90;;;;;;5073828;28;20068;-73
2022/09/06 02:57:59;;;;;;;1.10;0.68;;;16.90;99.90;;;;;;5074085;28;20036;-72
2022/09/06 03:00:26;;;;;;;0.65;0.55;;;16.90;99.90;;;;;;5073571;28;20058;-72
2022/09/06 03:02:51;;;;;;;0.60;0.45;;;16.80;99.90;;;;;;5073787;28;20041;-72
2022/09/06 03:05:17;;;;;;;0.50;0.38;;;16.80;99.90;;;;;;5073763;28;20060;-74
2022/09/06 03:07:42;;;;;;;0.52;0.52;;;16.90;99.90;;;;;;5073835;28;20033;-72
2022/09/06 03:10:08;;;;;;;0.20;0.20;;;16.90;99.90;;;;;;5073479;28;20049;-73
2022/09/06 03:12:34;;;;;;;0.10;0.10;;;16.90;99.90;;;;;;5073911;28;20055;-73
2022/09/06 03:15:00;;;;;;;0.60;0.57;;;16.90;99.90;;;;;;5073945;28;20029;-74
2022/09/06 03:17:25;;;;;;;1.65;0.95;;;16.90;99.90;;;;;;5074012;28;20045;-73
2022/09/06 03:19:51;;;;;;;0.45;0.45;;;16.90;99.90;;;;;;5073569;28;20063;-72
2022/09/06 03:22:16;;;;;;;0.43;0.43;;;16.80;99.90;;;;;;5073542;28;20086;-72
2022/09/06 03:24:42;;;;;;;0.15;0.00;;;16.80;99.90;;;;;;5074036;28;20101;-74
2022/09/06 03:27:08;;;;;;;1.38;0.55;;;16.80;99.90;;;;;;5073506;28;20044;-72
2022/09/06 03:29:33;;;;;;;3.60;0.40;;;16.90;99.90;;;;;;5073753;28;20037;-72
2022/09/06 03:31:59;;;;;;;0.30;0.25;;;16.90;99.90;;;;;;5069488;28;20068;-72
2022/09/06 03:34:24;;;;;;;0.22;0.22;;;17.10;99.90;;;;;;5070857;28;20052;-74
2022/09/06 03:36:50;;;;;;;1.23;0.75;;;17.00;99.90;;;;;;5069144;28;20116;-72
2022/09/06 03:39:15;;;;;;;1.25;0.85;;;17.10;99.90;;;;;;5072810;28;20021;-73
2022/09/06 03:41:41;;;;;;;0.60;0.60;;;17.10;99.90;;;;;;5071438;28;20098;-72
2022/09/06 03:44:06;;;;;;;0.50;0.50;;;17.10;99.90;;;;;;5070232;28;20041;-74
2022/09/06 03:46:32;;;;;;;0.52;0.52;;;17.20;99.90;;;;;;5071593;28;20037;-73
2022/09/06 03:48:58;;;;;;;0.68;0.47;;;17.20;99.90;;;;;;5069583;28;20132;-72
2022/09/06 03:51:24;;;;;;;1.25;0.47;;;17.10;99.90;;;;;;5072718;28;20029;-74
2022/09/06 03:53:49;;;;;;;2.10;1.40;;;17.10;99.90;;;;;;5076283;28;20488;-73
2022/09/06 03:56:15;;;;;;;3.85;0.63;;;17.10;99.90;;;;;;5075850;28;20041;-72
2022/09/06 03:58:41;;;;;;;0.73;0.55;;;17.20;99.90;;;;;;5075300;28;20068;-73
2022/09/06 04:01:09;;;;;;;2.47;0.60;;;17.20;99.90;;;;;;5073489;28;20047;-72
2022/09/06 04:03:36;;;;;;;0.68;0.45;;;17.20;99.90;;;;;;5074906;28;20072;-73
2022/09/06 04:06:03;;;;;;;0.63;0.50;;;17.20;99.90;;;;;;5074847;28;20041;-72
2022/09/06 04:08:29;;;;;;;1.20;0.73;;;17.20;99.90;;;;;;5073544;28;20064;-73
2022/09/06 04:10:56;;;;;;;2.50;0.60;;;17.20;99.90;;;;;;5075666;28;20063;-73
2022/09/06 04:13:23;;;;;;;0.82;0.57;;;17.20;99.90;;;;;;5073188;28;20048;-72
2022/09/06 04:15:49;;;;;;;1.00;0.65;;;17.10;99.90;;;;;;5072152;28;20096;-73
2022/09/06 04:18:15;;;;;;;0.30;0.30;;;17.20;99.90;;;;;;5073946;28;20053;-73
2022/09/06 04:20:41;;;;;;;1.77;0.63;;;17.20;99.90;;;;;;5073413;28;20044;-72
2022/09/06 04:23:07;;;;;;;0.82;0.57;;;17.30;99.90;;;;;;5074257;28;20076;-72
2022/09/06 04:25:33;;;;;;;2.17;1.02;;;17.20;99.90;;;;;;5075000;28;20037;-74
2022/09/06 04:27:59;;;;;;;0.30;0.30;;;17.30;99.90;;;;;;5073872;28;20021;-73
2022/09/06 04:30:24;;;;;;;1.48;0.85;;;17.20;99.90;;;;;;5075573;28;20081;-72
2022/09/06 04:32:50;;;;;;;4.30;2.10;;;17.20;99.90;;;;;;5075249;28;20048;-73
2022/09/06 04:35:16;;;;;;;2.83;0.98;;;17.10;99.90;;;;;;5075330;28;20117;-73
2022/09/06 04:37:41;;;;;;;3.90;1.20;;;17.20;99.90;;;;;;5075457;28;20049;-72
2022/09/06 04:40:07;;;;;;;0.68;0.52;;;17.30;99.90;;;;;;5075101;28;20067;-74
2022/09/06 04:42:33;;;;;;;2.22;1.23;;;17.20;99.90;;;;;;5075251;28;20055;-72
2022/09/06 04:44:59;;;;;;;0.82;0.60;;;17.20;99.90;;;;;;5075689;28;20041;-74
2022/09/06 04:47:24;;;;;;;2.22;1.35;;;17.20;99.90;;;;;;5057636;28;20036;-73
2022/09/06 04:49:50;;;;;;;0.28;0.28;;;17.20;99.90;;;;;;5075070;28;20048;-73
2022/09/06 04:52:16;;;;;;;0.28;0.28;;;17.10;99.90;;;;;;5074100;28;20017;-73
2022/09/06 04:54:42;;;;;;;0.45;0.45;;;17.00;99.90;;;;;;5075212;28;20044;-73
2022/09/06 04:57:08;;;;;;;0.60;0.60;;;16.80;99.90;;;;;;5075350;28;20033;-73
2022/09/06 04:59:33;;;;;;;1.75;0.63;;;16.80;99.90;;;;;;5075197;28;20037;-73
2022/09/06 05:01:59;;;;;;;0.50;0.40;;;16.80;99.90;;;;;;5072895;28;20033;-72
2022/09/06 05:04:25;;;;;;;0.15;0.15;;;16.70;99.90;;;;;;5073668;28;20049;-72
2022/09/06 05:07:00;;;;;;;4.53;0.50;;;16.60;99.90;;;;;;5073692;28;20044;-72
2022/09/06 05:09:26;;;;;;;4.07;1.98;;;16.60;99.90;;;;;;5075159;28;20041;-72
2022/09/06 05:11:52;;;;;;;0.55;0.43;;;16.40;99.90;;;;;;5075219;28;20105;-74
2022/09/06 05:14:18;;;;;;;0.20;0.20;;;16.40;99.90;;;;;;5075624;28;20084;-74
2022/09/06 05:16:44;;;;;;;0.47;0.47;;;16.40;99.90;;;;;;5075077;28;20033;-73
2022/09/06 05:19:09;;;;;;;0.45;0.40;;;16.30;99.90;;;;;;5074875;28;20041;-73
2022/09/06 05:21:35;;;;;;;0.75;0.40;;;16.20;99.90;;;;;;5074678;28;20040;-73
2022/09/06 05:24:01;;;;;;;0.40;0.40;;;16.20;99.90;;;;;;5074578;28;20037;-73
2022/09/06 05:26:26;;;;;;;0.55;0.50;;;16.20;99.90;;;;;;5075329;28;20033;-74
2022/09/06 05:28:52;;;;;;;3.13;0.50;;;16.20;99.90;;;;;;5074332;28;20044;-73
2022/09/06 05:31:28;;;;;;;2.13;0.50;;;16.20;99.90;;;;;;5074106;28;20063;-74
2022/09/06 05:33:55;;;;;;;0.38;0.38;;;16.20;99.90;;;;;;5074387;28;20033;-75
2022/09/06 05:36:22;;;;;;;0.98;0.90;;;16.40;99.90;;;;;;5075455;28;20140;-74
2022/09/06 05:38:49;;;;;;;0.43;0.43;;;16.20;99.90;;;;;;5074600;28;20052;-74
2022/09/06 05:41:15;;;;;;;1.10;0.85;;;16.20;99.90;;;;;;5074300;28;20041;-72
2022/09/06 05:43:40;;;;;;;0.55;0.55;;;17.20;99.90;;;;;;5073079;28;20033;-73
2022/09/06 05:46:06;;;;;;;0.85;0.75;;;16.20;99.90;;;;;;5073224;28;20056;-72
2022/09/06 05:48:31;;;;;;;1.10;1.00;;;16.30;99.90;;;;;;5073584;28;20060;-72
2022/09/06 05:51:05;;;;;;;1.63;0.68;;;16.30;99.90;;;;;;5073062;28;20037;-73
2022/09/06 05:53:57;;;;;;;0.45;0.45;;;16.40;99.90;;;;;;5071515;28;20504;-73
2022/09/06 05:56:23;;;;;;;15.23;1.95;;;16.60;99.90;;;;;;5069778;28;20068;-73
2022/09/06 05:58:49;;;;;;;13.07;1.23;;;16.70;99.90;;;;;;5072842;28;20044;-72
2022/09/06 06:01:17;;;;;;;1.55;1.23;;;17.00;99.90;;;;;;5072654;28;20039;-72
2022/09/06 06:03:50;;;;;;;3.70;1.02;;;16.80;99.90;;;;;;5072798;28;20068;-73
2022/09/06 06:06:15;;;;;;;1.23;1.13;;;16.80;99.90;;;;;;5073300;28;20045;-72
2022/09/06 06:08:41;;;;;;;0.82;0.70;;;16.90;99.90;;;;;;5072723;28;20045;-72
2022/09/06 06:11:06;;;;;;;0.43;0.43;;;17.00;99.90;;;;;;5074141;28;20081;-74
2022/09/06 06:13:35;;;;;;;0.50;0.50;;;17.00;99.90;;;;;;5073447;28;20045;-74
2022/09/06 06:16:02;;;;;;;1.98;1.63;;;17.10;99.90;;;;;;5072571;28;20435;-72
2022/09/06 06:18:27;;;;;;;1.02;0.63;;;17.10;99.90;;;;;;5073515;28;20127;-72
2022/09/06 06:21:06;;;;;;;5.57;2.30;;;17.20;99.90;;;;;;5072894;28;20041;-73
2022/09/06 06:23:32;;;;;;;1.60;0.60;;;17.20;99.90;;;;;;5072731;28;20071;-72
2022/09/06 06:25:57;;;;;;;2.72;1.17;;;17.20;99.90;;;;;;5073033;28;20041;-72
2022/09/06 06:28:23;;;;;;;1.45;1.27;;;17.40;99.90;;;;;;5074745;28;20068;-73
2022/09/06 06:30:48;;;;;;;5.85;2.50;;;17.40;99.90;;;;;;5073072;28;20084;-72
2022/09/06 06:33:14;;;;;;;5.00;1.40;;;17.50;99.90;;;;;;5073800;28;20025;-72
2022/09/06 06:35:39;;;;;;;8.82;2.30;;;17.50;99.90;;;;;;5073888;28;20021;-72
2022/09/06 06:38:05;;;;;;;0.50;0.50;;;17.60;99.90;;;;;;5073096;28;20544;-73
2022/09/06 06:40:30;;;;;;;3.67;1.48;;;17.60;99.90;;;;;;5073297;28;20068;-72
2022/09/06 06:42:56;;;;;;;1.55;1.17;;;17.60;99.90;;;;;;5074295;28;20093;-73
2022/09/06 06:45:22;;;;;;;0.50;0.40;;;17.60;99.90;;;;;;5072711;28;20033;-73
2022/09/06 06:47:50;;;;;;;1.35;0.75;;;18.30;99.90;;;;;;5074134;28;20039;-72
2022/09/06 06:50:16;;;;;;;2.08;1.60;;;17.60;99.90;;;;;;5072094;28;20037;-72
2022/09/06 06:52:41;;;;;;;1.25;1.08;;;17.70;99.90;;;;;;5073649;28;20044;-72
2022/09/06 06:55:07;;;;;;;2.58;1.65;;;17.70;99.90;;;;;;5072007;28;20049;-73
2022/09/06 06:57:33;;;;;;;30.08;1.25;;;17.70;99.90;;;;;;5072785;28;20049;-73
2022/09/06 06:59:58;;;;;;;1.15;0.98;;;17.70;99.90;;;;;;5070703;28;20074;-73
2022/09/06 07:02:24;;;;;;;1.80;1.23;;;17.70;99.90;;;;;;5071857;28;20057;-74
2022/09/06 07:04:49;;;;;;;1.75;1.08;;;17.70;99.90;;;;;;5071432;28;20037;-72
2022/09/06 07:07:15;;;;;;;1.38;1.10;;;17.60;99.90;;;;;;5073850;28;20043;-74
2022/09/06 07:09:41;;;;;;;0.88;0.88;;;17.70;99.90;;;;;;5070748;28;20060;-72
2022/09/06 07:12:06;;;;;;;0.40;0.40;;;17.70;99.90;;;;;;5073291;28;20037;-73
2022/09/06 07:14:32;;;;;;;2.08;1.60;;;17.90;99.90;;;;;;5070600;28;20048;-74
2022/09/06 07:16:58;;;;;;;1.15;0.95;;;17.90;99.90;;;;;;5070485;28;20061;-73
2022/09/06 07:19:24;;;;;;;1.05;0.98;;;18.00;99.90;;;;;;5071484;28;20037;-73
2022/09/06 07:21:49;;;;;;;2.80;1.52;;;18.20;99.90;;;;;;5071727;28;20041;-73
2022/09/06 07:24:15;;;;;;;2.25;0.88;;;18.30;99.90;;;;;;5072030;28;20037;-74
2022/09/06 07:26:40;;;;;;;3.30;1.70;;;18.40;99.90;;;;;;5074437;28;20044;-73
2022/09/06 07:29:07;;;;;;;1.30;1.17;;;18.70;99.90;;;;;;5071860;28;20040;-74
2022/09/06 07:31:34;;;;;;;1.40;1.10;;;18.90;99.90;;;;;;5068933;28;20033;-72
2022/09/06 07:34:00;;;;;;;2.47;1.52;;;19.10;99.90;;;;;;5069671;28;20108;-73
2022/09/06 07:36:26;;;;;;;1.90;1.38;;;19.50;99.90;;;;;;5066614;28;20088;-73
2022/09/06 07:38:52;;;;;;;1.33;1.10;;;19.80;99.90;;;;;;5067918;28;20037;-72
2022/09/06 07:41:18;;;;;;;1.95;1.50;;;20.10;99.90;;;;;;5068611;28;20093;-74
2022/09/06 07:43:44;;;;;;;0.60;0.60;;;20.10;99.90;;;;;;5067951;28;20037;-73
2022/09/06 07:46:14;;;;;;;2.80;1.98;;;20.10;99.90;;;;;;5069642;28;20377;-72
2022/09/06 07:48:42;;;;;;;0.47;0.47;;;20.30;99.90;;;;;;5066424;28;20063;-74
2022/09/06 07:51:13;;;;;;;4.07;1.80;;;20.20;99.90;;;;;;5066915;28;20037;-73
2022/09/06 07:53:41;;;;;;;1.25;0.93;;;20.00;99.90;;;;;;5066617;28;20072;-75
2022/09/06 07:56:09;;;;;;;2.78;1.10;;;19.80;99.90;;;;;;5064126;28;20484;-72
2022/09/06 07:58:35;;;;;;;3.80;1.35;;;19.70;99.90;;;;;;5048289;28;20076;-74
2022/09/06 08:01:34;;;;;;;4.43;1.65;;;20.30;99.90;;;;;;5068738;28;20118;-74
2022/09/06 08:04:02;;;;;;;2.97;1.20;;;21.30;99.90;;;;;;5031442;28;20061;-75
2022/09/06 08:06:30;;;;;;;1.65;1.27;;;21.60;99.90;;;;;;5064815;28;20037;-73
2022/09/06 08:08:57;;;;;;;1.65;1.20;;;22.40;99.90;;;;;;5063797;28;20448;-74
2022/09/06 08:11:25;;;;;;;3.33;2.10;;;22.40;99.90;;;;;;5065647;28;20111;-73
2022/09/06 08:13:53;;;;;;;2.80;1.05;;;22.70;99.90;;;;;;5066872;28;20041;-73
2022/09/06 08:16:20;;;;;;;2.55;1.55;;;22.90;99.90;;;;;;5061292;28;20115;-72
2022/09/06 08:18:50;;;;;;;2.33;1.80;;;23.10;99.90;;;;;;5060815;28;20037;-75
2022/09/06 08:21:16;;;;;;;1.45;0.90;;;22.30;99.90;;;;;;5066524;28;20065;-76
2022/09/06 08:23:47;;;;;;;2.70;1.50;;;21.90;99.90;;;;;;5066740;28;20037;-73
2022/09/06 08:26:14;;;;;;;4.45;1.70;;;21.40;99.90;;;;;;5068848;28;20107;-73
2022/09/06 08:28:40;;;;;;;1.77;1.38;;;21.20;99.90;;;;;;5071099;28;20039;-75
2022/09/06 08:31:14;;;;;;;1.40;0.90;;;21.10;99.90;;;;;;5070234;28;20037;-74
2022/09/06 08:33:41;;;;;;;1.45;1.10;;;21.20;99.90;;;;;;5066752;28;20435;-73
2022/09/06 08:36:08;;;;;;;1.80;1.63;;;21.70;99.90;;;;;;5068710;28;20036;-74
2022/09/06 08:38:34;;;;;;;1.63;1.20;;;22.60;99.90;;;;;;5071056;28;20049;-72
2022/09/06 08:41:18;;;;;;;0.63;0.60;;;23.20;99.90;;;;;;5069022;28;20044;-76
2022/09/06 08:43:56;;;;;;;0.95;0.60;;;23.50;99.90;;;;;;5073764;28;20040;-75
2022/09/06 08:46:56;;;;;;;1.08;0.77;;;23.90;99.90;;;;;;5071708;28;20052;-75
2022/09/06 08:49:23;;;;;;;6.05;1.98;;;25.10;98.10;;;;;;5072167;28;20083;-74
2022/09/06 08:51:48;;;;;;;13.20;1.38;;;25.70;90.90;;;;;;5073301;28;20083;-74
2022/09/06 08:54:37;;;;;;;1.88;1.30;;;25.50;85.40;;;;;;5073269;28;20104;-73
2022/09/06 08:57:30;;;;;;;1.55;1.10;;;25.40;84.90;;;;;;5069197;28;20067;-75
2022/09/06 09:00:00;;;;;;;0.52;0.52;;;25.50;89.40;;;;;;5073631;28;20066;-75
2022/09/06 09:02:32;;;;;;;0.82;0.75;;;26.10;78.70;;;;;;5072313;28;20040;-75
2022/09/06 09:05:03;;;;;;;0.80;0.75;;;26.60;68.80;;;;;;5050363;28;20056;-76
2022/09/06 09:07:43;;;;;;;1.30;0.95;;;25.80;73.20;;;;;;5067914;28;20059;-74
2022/09/06 09:10:20;;;;;;;1.42;1.10;;;26.30;67.60;;;;;;5074600;28;20053;-74
2022/09/06 09:12:47;;;;;;;0.85;0.52;;;26.70;77.50;;;;;;5069993;28;20058;-73
2022/09/06 09:15:16;;;;;;;0.63;0.63;;;27.30;48.20;;;;;;5069452;28;20021;-74
2022/09/06 09:17:43;;;;;;;0.30;0.30;;;27.20;42.60;;;;;;5069810;28;20060;-75
2022/09/06 09:20:09;;;;;;;5.93;1.17;;;27.60;38.50;;;;;;5064711;28;20033;-73
2022/09/06 09:22:36;;;;;;;0.98;0.70;;;27.60;32.80;;;;;;5062215;28;20100;-76
2022/09/06 09:25:03;;;;;;;1.23;0.93;;;27.40;33.10;;;;;;5064196;28;20073;-74
2022/09/06 09:27:30;;;;;;;0.85;0.55;;;27.30;31.90;;;;;;5064518;28;20508;-74
2022/09/06 09:30:00;;;;;;;4.00;1.45;;;27.30;30.40;;;;;;5062583;28;20502;-74
2022/09/06 09:32:37;;;;;;;1.13;0.65;;;26.90;39.70;;;;;;5065402;28;20021;-72
2022/09/06 09:35:36;;;;;;;0.65;0.50;;;27.10;35.00;;;;;;5065791;28;20044;-73
2022/09/06 09:38:39;;;;;;;1.42;0.98;;;27.20;42.70;;;;;;5063477;28;20500;-74
2022/09/06 09:41:07;;;;;;;1.42;0.85;;;26.80;50.20;;;;;;5057549;28;20048;-76
2022/09/06 09:43:36;;;;;;;1.00;0.73;;;26.90;44.40;;;;;;5071148;28;20048;-74
2022/09/06 09:46:13;;;;;;;0.60;0.57;;;26.90;48.90;;;;;;5065923;28;20063;-72
2022/09/06 09:48:42;;;;;;;0.93;0.50;;;27.60;45.30;;;;;;5066176;28;20467;-75
2022/09/06 09:51:23;;;;;;;1.00;0.63;;;27.70;36.50;;;;;;5064446;28;20040;-74
2022/09/06 09:54:06;;;;;;;0.77;0.65;;;27.00;27.10;;;;;;5064140;28;20497;-75
2022/09/06 09:56:53;;;;;;;3.47;0.70;;;26.40;37.30;;;;;;5063877;28;20098;-73
2022/09/06 09:59:24;;;;;;;0.77;0.77;;;26.40;45.70;;;;;;5058631;28;20041;-74
2022/09/06 10:01:53;;;;;;;4.72;1.90;;;26.20;54.60;;;;;;5058823;28;20644;-73
2022/09/06 10:04:30;;;;;;;1.60;0.50;;;26.10;55.00;;;;;;5059366;28;20049;-73
2022/09/06 10:07:15;;;;;;;0.90;0.80;;;26.20;60.50;;;;;;5058179;28;20594;-74
2022/09/06 10:09:47;;;;;;;2.03;1.42;;;26.80;55.70;;;;;;5041732;28;20056;-74
2022/09/06 10:12:17;;;;;;;1.05;0.68;;;26.50;49.50;;;;;;5059997;28;20571;-72
2022/09/06 10:14:48;;;;;;;1.75;1.05;;;26.40;50.00;;;;;;5046030;28;20045;-72
2022/09/06 10:17:25;;;;;;;1.45;1.23;;;26.70;51.70;;;;;;5067097;28;20075;-73
2022/09/06 10:19:51;;;;;;;0.85;0.70;;;26.80;44.70;;;;;;5059139;28;20052;-73
2022/09/06 10:22:27;;;;;;;1.67;1.25;;;26.70;49.60;;;;;;5059653;28;20041;-73
2022/09/06 10:25:02;;;;;;;1.95;1.25;;;26.40;47.10;;;;;;5061715;28;20124;-72
2022/09/06 10:27:27;;;;;;;1.63;1.02;;;26.30;48.00;;;;;;5046412;28;20052;-73
2022/09/06 10:30:03;;;;;;;1.23;0.98;;;26.10;54.10;;;;;;5064254;28;20571;-72
2022/09/06 10:32:37;;;;;;;2.58;1.52;;;26.00;59.00;;;;;;5065609;28;20033;-72
2022/09/06 10:35:08;;;;;;;2.13;1.20;;;26.00;61.40;;;;;;5064775;28;20045;-73
2022/09/06 10:38:06;;;;;;;1.77;1.20;;;26.10;59.20;;;;;;5059166;28;20132;-72
2022/09/06 10:41:10;;;;;;;2.10;1.63;;;26.40;58.20;;;;;;5056380;28;20100;-75
2022/09/06 10:43:53;;;;;;;1.27;1.00;;;26.40;54.50;;;;;;5061308;28;20045;-74
2022/09/06 10:46:25;;;;;;;0.93;0.70;;;26.70;60.10;;;;;;5062459;28;20053;-72
2022/09/06 10:48:52;;;;;;;1.20;0.93;;;26.80;51.40;;;;;;5056239;28;20045;-71
2022/09/06 10:51:49;;;;;;;0.95;0.55;;;27.10;50.60;;;;;;5057044;28;20037;-73
2022/09/06 10:54:22;;;;;;;1.00;0.77;;;26.70;45.30;;;;;;5059187;28;20057;-72
2022/09/06 10:56:51;;;;;;;1.00;0.88;;;26.60;46.70;;;;;;5058957;28;20049;-74
2022/09/06 10:59:37;;;;;;;6.03;2.40;;;26.70;53.40;;;;;;5058776;28;20052;-72
2022/09/06 11:02:22;;;;;;;1.55;1.20;;;26.30;49.90;;;;;;5061907;28;20100;-72
2022/09/06 11:04:52;;;;;;;1.80;1.30;;;26.70;52.00;;;;;;5062184;28;20048;-72
2022/09/06 11:07:30;;;;;;;0.50;0.50;;;26.80;50.40;;;;;;5055344;28;20063;-74
2022/09/06 11:10:06;;;;;;;3.20;1.00;;;27.30;39.50;;;;;;5056667;28;20064;-72
2022/09/06 11:12:41;;;;;;;0.98;0.75;;;27.20;26.90;;;;;;5058601;28;20052;-73
2022/09/06 11:15:11;;;;;;;3.22;1.42;;;26.90;28.60;;;;;;5060415;28;20094;-72
2022/09/06 11:17:54;;;;;;;1.55;0.90;;;26.90;36.00;;;;;;5060051;28;20056;-73
2022/09/06 11:20:48;;;;;;;2.00;1.05;;;27.60;26.90;;;;;;5062864;28;20045;-73
2022/09/06 11:23:33;;;;;;;1.05;0.73;;;27.30;21.50;;;;;;5063729;28;20049;-73
2022/09/06 11:26:33;;;;;;;1.23;0.90;;;27.20;20.50;;;;;;5061439;28;20060;-73
2022/09/06 11:29:05;;;;;;;0.65;0.50;;;27.40;18.90;;;;;;5062187;28;20073;-72
2022/09/06 11:31:33;;;;;;;0.40;0.40;;;27.30;19.00;;;;;;5064077;28;20041;-74
2022/09/06 11:34:08;;;;;;;1.50;1.27;;;27.80;20.20;;;;;;5062654;28;20081;-72
2022/09/06 11:36:36;;;;;;;0.30;0.30;;;27.90;15.00;;;;;;5062188;28;20045;-72
2022/09/06 11:39:04;;;;;;;0.90;0.70;;;28.00;14.50;;;;;;5063961;28;20052;-73
2022/09/06 11:41:33;;;;;;;0.88;0.60;;;28.10;17.90;;;;;;5061141;28;20615;-72
2022/09/06 11:43:59;;;;;;;0.63;0.60;;;28.40;12.80;;;;;;5062385;28;20052;-72
2022/09/06 11:46:33;;;;;;;0.47;0.47;;;28.50;13.10;;;;;;5060719;28;20040;-72
2022/09/06 11:49:19;;;;;;;0.50;0.50;;;28.60;11.70;;;;;;5046331;28;20079;-72
2022/09/06 11:51:45;;;;;;;0.20;0.20;;;28.90;8.60;;;;;;5063900;28;20049;-73
2022/09/06 11:54:14;;;;;;;0.73;0.50;;;29.40;5.80;;;;;;5059313;28;20048;-72
2022/09/06 11:56:45;;;;;;;0.73;0.45;;;29.10;5.40;;;;;;5062273;28;20053;-72
2022/09/06 11:59:22;;;;;;;1.33;0.95;;;29.10;4.90;;;;;;5065258;28;20056;-73
2022/09/06 12:01:54;;;;;;;0.90;0.50;;;29.80;3.10;;;;;;5063520;28;20056;-72
2022/09/06 12:04:20;;;;;;;0.38;0.30;;;30.50;1.00;;;;;;5068343;28;20033;-72
2022/09/06 12:07:11;;;;;;;0.65;0.57;;;30.60;1.00;;;;;;5062688;28;20060;-72
2022/09/06 12:09:39;;;;;;;7.10;0.70;;;29.90;1.00;;;;;;5067605;28;20044;-73
2022/09/06 12:12:06;;;;;;;1.02;0.77;;;30.50;1.00;;;;;;5067821;28;20041;-73
2022/09/06 12:14:45;;;;;;;0.40;0.40;;;29.70;1.00;;;;;;5066999;28;20098;-72
2022/09/06 12:17:13;;;;;;;0.55;0.32;;;29.30;1.00;;;;;;5069770;28;20041;-73
2022/09/06 12:19:48;;;;;;;0.70;0.68;;;29.80;2.40;;;;;;5066170;28;20111;-72
2022/09/06 12:22:26;;;;;;;;;;;29.20;2.00;;;;;;5061501;28;20064;-74
2022/09/06 12:25:01;;;;;;;0.68;0.50;;;28.70;3.80;;;;;;5067875;28;19921;-74
2022/09/06 12:27:37;;;;;;;0.80;0.70;;;29.60;2.30;;;;;;5068578;28;20056;-71
2022/09/06 12:30:08;;;;;;;3.47;1.83;;;30.00;1.00;;;;;;5067593;28;20059;-73
2022/09/06 12:32:50;;;;;;;0.52;0.52;;;29.80;1.00;;;;;;5068859;28;20101;-73
2022/09/06 12:35:22;;;;;;;0.55;0.47;;;29.80;1.00;;;;;;5065741;28;20037;-71
2022/09/06 12:37:58;;;;;;;1.00;0.73;;;29.90;1.00;;;;;;5065952;28;20120;-73
2022/09/06 12:40:26;;;;;;;2.20;0.50;;;31.00;1.00;;;;;;5067991;28;20098;-74
2022/09/06 12:42:52;;;;;;;0.32;0.32;;;31.00;1.00;;;;;;5065795;28;20120;-73
2022/09/06 12:45:20;;;;;;;0.35;0.32;;;31.70;1.00;;;;;;5066598;28;20488;-74
2022/09/06 12:47:47;;;;;;;1.00;0.80;;;31.10;1.00;;;;;;5064654;28;20040;-73
2022/09/06 12:50:23;;;;;;;0.55;0.47;;;31.00;1.00;;;;;;5066104;28;20041;-73
2022/09/06 12:52:56;;;;;;;0.95;0.45;;;31.40;1.00;;;;;;5059667;28;20055;-72
2022/09/06 12:55:32;;;;;;;1.95;1.00;;;30.00;1.00;;;;;;5063698;28;20123;-72
2022/09/06 12:58:07;;;;;;;0.25;0.25;;;31.40;1.00;;;;;;5064751;28;20129;-72
2022/09/06 13:00:35;;;;;;;0.28;0.20;;;30.90;1.00;;;;;;5064185;28;20144;-72
2022/09/06 13:03:09;;;;;;;0.52;0.38;;;31.80;1.00;;;;;;5063054;28;20091;-73
2022/09/06 13:05:39;;;;;;;0.73;0.50;;;31.70;1.00;;;;;;5064289;28;20072;-72
2022/09/06 13:08:12;;;;;;;0.82;0.38;;;31.50;1.00;;;;;;5058607;28;20037;-73